Nearby METAR Reports

 

KHCR - Heber/Russ Mcdon, Utah, USA
Distance from station: SSW 18mi, 29km
Updated: Mon, 05-Dec-2022 7:15am MST
Light snow, Overcast
Light snow, Overcast
 Wind from ESE
Wind: ESE 7 mph , 11 km/h
Temperature: 30°F , -1°C
Wind Chill: 23°F , -5°C
Dew Point: 28°F , -2°C
Humidity: 93%
Barometer: 29.98 inHg , 1015.2 hPa
Summary: Light Snow
Clouds: Overcast
Visibility: 1 3/4 miles , 2.8 km
Cloud details: Mostly cloudy 400 ft
Overcast 1000 ft
2022/12/05 14:15 KHCR 051415Z AUTO 11006KT 1 3/4SM -SN BKN004 OVC010 M01/M02 A2998 RMK AO2
KSLC - Salt Lake City, Utah, USA
Distance from station: W 35mi, 57km
Updated: Mon, 05-Dec-2022 6:54am MST
Overcast
Overcast
 Wind from SE
Wind: SE 3 mph , 6 km/h
Temperature: 36°F , 2°C
Dew Point: 30°F , -1°C
Humidity: 81%
Barometer: 30.00 inHg , 1015.9 hPa
Clouds: Overcast
Visibility: 10 miles , 16 km
Cloud details: Few Clouds 8500 ft
Mostly cloudy 11000 ft
Overcast 13000 ft
2022/12/05 13:54 KSLC 051354Z 14003KT 10SM FEW085 BKN110 OVC130 02/M01 A3000 RMK AO2 SLP163 T00171006
 
KU42 - Salt Lake Muni, Utah, USA
Distance from station: WSW 37mi, 59km
Updated: Mon, 05-Dec-2022 7:15am MST
Partly cloudy
Partly cloudy
 Wind from SW
Wind: SW 5 mph , 7 km/h
Temperature: 32°F , 0°C
Wind Chill: 27°F , -3°C
Dew Point: 30°F , -1°C
Humidity: 93%
Barometer: 30.01 inHg , 1016.3 hPa
Clouds: Partly cloudy
Visibility: 10 miles , 16 km
Cloud details: Partly cloudy 7500 ft
2022/12/05 14:15 KU42 051415Z AUTO 23004KT 10SM SCT075 00/M01 A3001 RMK AO1 T00001006
KEVW - Evanston, Wyoming, USA
Distance from station: NNE 40mi, 64km
Updated: Mon, 05-Dec-2022 7:18am MST
Mostly cloudy
Mostly cloudy
 Wind from SW
Wind: SW 10 mph , 17 km/h
Temperature: 25°F , -4°C
Wind Chill: 15°F , -9°C
Dew Point: 21°F , -6°C
Humidity: 86%
Barometer: 29.95 inHg , 1014.2 hPa
Clouds: Mostly cloudy
Visibility: 10 miles , 16 km
Cloud details: Few Clouds 300 ft
Partly cloudy 1200 ft
Mostly cloudy 7000 ft
2022/12/05 14:18 KEVW 051418Z AUTO 23009KT 10SM FEW003 SCT012 BKN070 M04/M06 A2995 RMK AO2 T10391056
 
KPVU - Provo Muni, Utah, USA
Distance from station: SSW 41mi, 67km
Updated: Mon, 05-Dec-2022 7:20am MST
Overcast
Overcast
 Wind from varies
Wind: varies 5 mph , 7 km/h
Temperature: 32°F , 0°C
Wind Chill: 27°F , -3°C
Dew Point: 30°F , -1°C
Humidity: 93%
Barometer: 30.04 inHg , 1017.3 hPa
Clouds: Overcast
Visibility: 10 miles , 16 km
Cloud details: Mostly cloudy 800 ft
Overcast 4000 ft
2022/12/05 14:20 KPVU 051420Z VRB04KT 10SM UP BKN008 OVC040 00/M01 A3004 RMK AO2 UPB16SNE16 CIG 003V010 P0000
KHIF - Hill Afb/Ogden, Utah, USA
Distance from station: NW 45mi, 72km
Updated: Mon, 05-Dec-2022 6:55am MST
Overcast
Overcast
 Wind from SW
Wind: SW 3 mph , 6 km/h
Temperature: 32°F , 0°C
Dew Point: 32°F , 0°C
Humidity: 100%
Barometer: 29.97 inHg , 1014.9 hPa
Clouds: Overcast
Visibility: 10 miles , 16 km
Cloud details: Partly cloudy 4900 ft
Mostly cloudy 9000 ft
Overcast 18000 ft
2022/12/05 13:55 KHIF 051355Z 22003KT 10SM SCT049 BKN090 OVC180 M00/M00 A2997 RMK AO2A SLP155 T10041005
 
KOGD - Ogden, Utah, USA
Distance from station: NW 50mi, 81km
Updated: Mon, 05-Dec-2022 6:56am MST
Mist, Mostly cloudy
Mist, Mostly cloudy
 Wind from calm
Wind: Calm
Temperature: 30°F , -1°C
Dew Point: 28°F , -2°C
Humidity: 93%
Barometer: 29.99 inHg , 1015.6 hPa
Summary: Mist
Clouds: Mostly cloudy
Visibility: 4 miles , 6 km
Cloud details: Few Clouds 4800 ft
Mostly cloudy 10000 ft
2022/12/05 13:56 KOGD 051356Z 00000KT 4SM BR FEW048 BKN100 M01/M02 A2999 RMK AO2 T10061017